sensor_id;sensor_type;location;lat;lon;timestamp;pressure;altitude;pressure_sealevel;temperature;humidity
18795;BME280;29610;49.022;12.114;2022-08-21T00:01:53;97757.66;;;17.92;100.00
18795;BME280;29610;49.022;12.114;2022-08-21T00:04:22;97759.28;;;17.93;100.00
18795;BME280;29610;49.022;12.114;2022-08-21T00:06:56;97755.28;;;17.91;100.00
18795;BME280;29610;49.022;12.114;2022-08-21T00:09:25;97759.06;;;17.83;100.00
18795;BME280;29610;49.022;12.114;2022-08-21T00:11:53;97754.00;;;17.85;100.00
18795;BME280;29610;49.022;12.114;2022-08-21T00:14:23;97758.78;;;17.88;100.00
18795;BME280;29610;49.022;12.114;2022-08-21T00:16:58;97750.66;;;17.95;100.00
18795;BME280;29610;49.022;12.114;2022-08-21T00:19:28;97746.25;;;17.90;100.00
18795;BME280;29610;49.022;12.114;2022-08-21T00:21:56;97745.09;;;17.91;100.00
18795;BME280;29610;49.022;12.114;2022-08-21T00:24:26;97749.00;;;17.90;100.00
18795;BME280;29610;49.022;12.114;2022-08-21T00:26:55;97749.41;;;17.92;100.00
18795;BME280;29610;49.022;12.114;2022-08-21T00:29:25;97746.56;;;17.85;100.00
18795;BME280;29610;49.022;12.114;2022-08-21T00:31:53;97746.25;;;17.90;100.00
18795;BME280;29610;49.022;12.114;2022-08-21T00:34:22;97750.34;;;18.00;100.00
18795;BME280;29610;49.022;12.114;2022-08-21T00:36:50;97747.63;;;18.03;100.00
18795;BME280;29610;49.022;12.114;2022-08-21T00:39:19;97744.84;;;18.00;100.00
18795;BME280;29610;49.022;12.114;2022-08-21T00:41:47;97739.00;;;18.01;100.00
18795;BME280;29610;49.022;12.114;2022-08-21T00:44:16;97734.00;;;18.10;100.00
18795;BME280;29610;49.022;12.114;2022-08-21T00:46:46;97732.38;;;18.06;100.00
18795;BME280;29610;49.022;12.114;2022-08-21T00:49:16;97729.69;;;18.09;100.00
18795;BME280;29610;49.022;12.114;2022-08-21T00:51:51;97730.41;;;18.06;100.00
18795;BME280;29610;49.022;12.114;2022-08-21T00:54:24;97728.03;;;18.05;100.00
18795;BME280;29610;49.022;12.114;2022-08-21T00:56:57;97722.22;;;18.10;100.00
18795;BME280;29610;49.022;12.114;2022-08-21T00:59:33;97723.44;;;18.12;100.00
18795;BME280;29610;49.022;12.114;2022-08-21T01:02:07;97718.56;;;18.02;100.00
18795;BME280;29610;49.022;12.114;2022-08-21T01:04:36;97720.56;;;18.05;100.00
18795;BME280;29610;49.022;12.114;2022-08-21T01:07:05;97722.34;;;18.17;100.00
18795;BME280;29610;49.022;12.114;2022-08-21T01:09:34;97723.84;;;18.14;100.00
18795;BME280;29610;49.022;12.114;2022-08-21T01:12:04;97723.31;;;18.05;100.00
18795;BME280;29610;49.022;12.114;2022-08-21T01:14:33;97722.66;;;18.12;100.00
18795;BME280;29610;49.022;12.114;2022-08-21T01:17:05;97722.28;;;18.13;100.00
18795;BME280;29610;49.022;12.114;2022-08-21T01:19:34;97717.72;;;17.98;100.00
18795;BME280;29610;49.022;12.114;2022-08-21T01:22:04;97710.31;;;18.02;100.00
18795;BME280;29610;49.022;12.114;2022-08-21T01:24:33;97721.31;;;18.02;100.00
18795;BME280;29610;49.022;12.114;2022-08-21T01:27:03;97717.66;;;17.95;100.00
18795;BME280;29610;49.022;12.114;2022-08-21T01:29:39;97708.97;;;17.93;100.00
18795;BME280;29610;49.022;12.114;2022-08-21T01:32:14;97715.66;;;17.92;100.00
18795;BME280;29610;49.022;12.114;2022-08-21T01:34:47;97713.38;;;17.97;100.00
18795;BME280;29610;49.022;12.114;2022-08-21T01:37:19;97711.13;;;18.03;100.00
18795;BME280;29610;49.022;12.114;2022-08-21T01:39:48;97714.84;;;17.91;100.00
18795;BME280;29610;49.022;12.114;2022-08-21T01:42:17;97717.66;;;17.95;100.00
18795;BME280;29610;49.022;12.114;2022-08-21T01:44:46;97719.41;;;18.06;100.00
18795;BME280;29610;49.022;12.114;2022-08-21T01:47:16;97718.13;;;18.00;100.00
18795;BME280;29610;49.022;12.114;2022-08-21T01:49:45;97716.66;;;18.06;100.00
18795;BME280;29610;49.022;12.114;2022-08-21T01:52:13;97723.00;;;18.10;100.00
18795;BME280;29610;49.022;12.114;2022-08-21T01:54:43;97717.94;;;18.12;100.00
18795;BME280;29610;49.022;12.114;2022-08-21T01:57:21;97724.81;;;17.99;100.00
18795;BME280;29610;49.022;12.114;2022-08-21T01:59:52;97728.88;;;18.09;100.00
18795;BME280;29610;49.022;12.114;2022-08-21T02:02:21;97720.56;;;18.05;100.00
18795;BME280;29610;49.022;12.114;2022-08-21T02:04:49;97728.72;;;17.98;100.00
18795;BME280;29610;49.022;12.114;2022-08-21T02:07:18;97716.31;;;18.08;100.00
18795;BME280;29610;49.022;12.114;2022-08-21T02:09:48;97719.59;;;17.94;100.00
18795;BME280;29610;49.022;12.114;2022-08-21T02:12:16;97719.72;;;18.01;100.00
18795;BME280;29610;49.022;12.114;2022-08-21T02:14:45;97709.88;;;18.00;100.00
18795;BME280;29610;49.022;12.114;2022-08-21T02:17:13;97702.59;;;18.11;100.00
18795;BME280;29610;49.022;12.114;2022-08-21T02:19:42;97704.97;;;18.13;100.00
18795;BME280;29610;49.022;12.114;2022-08-21T02:22:11;97705.41;;;18.15;100.00
18795;BME280;29610;49.022;12.114;2022-08-21T02:24:41;97697.22;;;18.18;100.00
18795;BME280;29610;49.022;12.114;2022-08-21T02:27:24;97709.03;;;18.22;100.00
18795;BME280;29610;49.022;12.114;2022-08-21T02:29:55;97704.03;;;18.28;100.00
18795;BME280;29610;49.022;12.114;2022-08-21T02:32:25;97700.53;;;18.31;100.00
18795;BME280;29610;49.022;12.114;2022-08-21T02:34:54;97704.19;;;18.38;100.00
18795;BME280;29610;49.022;12.114;2022-08-21T02:37:23;97704.31;;;18.45;100.00
18795;BME280;29610;49.022;12.114;2022-08-21T02:39:52;97699.03;;;18.37;100.00
18795;BME280;29610;49.022;12.114;2022-08-21T02:42:22;97701.44;;;18.38;100.00
18795;BME280;29610;49.022;12.114;2022-08-21T02:44:51;97705.50;;;18.44;100.00
18795;BME280;29610;49.022;12.114;2022-08-21T02:47:19;97703.69;;;18.55;100.00
18795;BME280;29610;49.022;12.114;2022-08-21T02:49:48;97708.88;;;18.60;100.00
18795;BME280;29610;49.022;12.114;2022-08-21T02:52:16;97702.44;;;18.27;100.00
18795;BME280;29610;49.022;12.114;2022-08-21T02:54:45;97704.09;;;18.31;100.00
18795;BME280;29610;49.022;12.114;2022-08-21T02:57:13;97703.72;;;18.33;100.00
18795;BME280;29610;49.022;12.114;2022-08-21T02:59:43;97698.28;;;18.36;100.00
18795;BME280;29610;49.022;12.114;2022-08-21T03:02:12;97696.44;;;18.44;100.00
18795;BME280;29610;49.022;12.114;2022-08-21T03:04:41;97688.13;;;18.40;100.00
18795;BME280;29610;49.022;12.114;2022-08-21T03:07:13;97700.00;;;18.48;100.00
18795;BME280;29610;49.022;12.114;2022-08-21T03:09:42;97704.44;;;18.52;100.00
18795;BME280;29610;49.022;12.114;2022-08-21T03:12:22;97698.53;;;18.54;100.00
18795;BME280;29610;49.022;12.114;2022-08-21T03:14:54;97698.81;;;18.45;100.00
18795;BME280;29610;49.022;12.114;2022-08-21T03:17:22;97700.66;;;18.38;100.00
18795;BME280;29610;49.022;12.114;2022-08-21T03:19:57;97707.38;;;18.40;100.00
18795;BME280;29610;49.022;12.114;2022-08-21T03:22:26;97715.88;;;18.32;100.00
18795;BME280;29610;49.022;12.114;2022-08-21T03:24:57;97717.69;;;18.47;100.00
18795;BME280;29610;49.022;12.114;2022-08-21T03:27:26;97714.72;;;18.33;100.00
18795;BME280;29610;49.022;12.114;2022-08-21T03:29:57;97713.28;;;17.90;100.00
18795;BME280;29610;49.022;12.114;2022-08-21T03:32:26;97714.03;;;17.91;100.00
18795;BME280;29610;49.022;12.114;2022-08-21T03:34:55;97717.50;;;18.10;100.00
18795;BME280;29610;49.022;12.114;2022-08-21T03:37:24;97710.97;;;18.18;100.00
18795;BME280;29610;49.022;12.114;2022-08-21T03:39:53;97715.03;;;18.28;100.00
18795;BME280;29610;49.022;12.114;2022-08-21T03:42:22;97716.91;;;18.20;100.00
18795;BME280;29610;49.022;12.114;2022-08-21T03:44:51;97713.03;;;18.25;100.00
18795;BME280;29610;49.022;12.114;2022-08-21T03:47:21;97717.09;;;18.34;100.00
18795;BME280;29610;49.022;12.114;2022-08-21T03:49:50;97707.81;;;18.42;100.00
18795;BME280;29610;49.022;12.114;2022-08-21T03:52:19;97707.00;;;18.42;100.00
18795;BME280;29610;49.022;12.114;2022-08-21T03:54:47;97713.81;;;18.51;100.00
18795;BME280;29610;49.022;12.114;2022-08-21T03:57:17;97716.00;;;18.39;100.00
18795;BME280;29610;49.022;12.114;2022-08-21T03:59:46;97714.34;;;18.34;100.00
18795;BME280;29610;49.022;12.114;2022-08-21T04:02:21;97713.50;;;18.30;100.00
18795;BME280;29610;49.022;12.114;2022-08-21T04:04:49;97726.34;;;18.23;100.00
18795;BME280;29610;49.022;12.114;2022-08-21T04:07:18;97729.53;;;18.25;100.00
18795;BME280;29610;49.022;12.114;2022-08-21T04:09:46;97728.78;;;18.28;100.00
18795;BME280;29610;49.022;12.114;2022-08-21T04:12:14;97724.03;;;18.25;100.00
18795;BME280;29610;49.022;12.114;2022-08-21T04:14:43;97732.59;;;18.20;100.00
18795;BME280;29610;49.022;12.114;2022-08-21T04:17:12;97729.47;;;18.21;100.00
18795;BME280;29610;49.022;12.114;2022-08-21T04:19:41;97730.66;;;18.20;100.00
18795;BME280;29610;49.022;12.114;2022-08-21T04:22:10;97732.16;;;18.18;100.00
18795;BME280;29610;49.022;12.114;2022-08-21T04:24:38;97729.78;;;18.16;100.00
18795;BME280;29610;49.022;12.114;2022-08-21T04:27:07;97735.66;;;18.15;100.00
18795;BME280;29610;49.022;12.114;2022-08-21T04:29:35;97738.31;;;18.08;100.00
18795;BME280;29610;49.022;12.114;2022-08-21T04:32:06;97745.25;;;18.02;100.00
18795;BME280;29610;49.022;12.114;2022-08-21T04:34:35;97738.25;;;18.04;100.00
18795;BME280;29610;49.022;12.114;2022-08-21T04:37:05;97746.81;;;17.99;100.00
18795;BME280;29610;49.022;12.114;2022-08-21T04:39:33;97751.13;;;17.78;100.00
18795;BME280;29610;49.022;12.114;2022-08-21T04:42:02;97748.50;;;17.85;100.00
18795;BME280;29610;49.022;12.114;2022-08-21T04:44:32;97760.38;;;17.66;100.00
18795;BME280;29610;49.022;12.114;2022-08-21T04:47:00;97758.59;;;17.77;100.00
18795;BME280;29610;49.022;12.114;2022-08-21T04:49:29;97753.84;;;17.74;100.00
18795;BME280;29610;49.022;12.114;2022-08-21T04:51:58;97754.97;;;17.50;100.00
18795;BME280;29610;49.022;12.114;2022-08-21T04:54:29;97766.81;;;17.35;100.00
18795;BME280;29610;49.022;12.114;2022-08-21T04:57:02;97765.16;;;17.31;100.00
18795;BME280;29610;49.022;12.114;2022-08-21T04:59:38;97773.97;;;17.40;100.00
18795;BME280;29610;49.022;12.114;2022-08-21T05:02:09;97773.47;;;17.34;100.00
18795;BME280;29610;49.022;12.114;2022-08-21T05:04:44;97778.25;;;17.57;100.00
18795;BME280;29610;49.022;12.114;2022-08-21T05:07:19;97771.03;;;17.48;100.00
18795;BME280;29610;49.022;12.114;2022-08-21T05:10:10;97774.50;;;17.45;100.00
18795;BME280;29610;49.022;12.114;2022-08-21T05:12:42;97779.38;;;17.56;100.00
18795;BME280;29610;49.022;12.114;2022-08-21T05:15:12;97786.06;;;17.35;100.00
18795;BME280;29610;49.022;12.114;2022-08-21T05:17:41;97776.19;;;17.34;100.00
18795;BME280;29610;49.022;12.114;2022-08-21T05:20:19;97783.38;;;17.39;100.00
18795;BME280;29610;49.022;12.114;2022-08-21T05:22:48;97778.91;;;17.31;100.00
18795;BME280;29610;49.022;12.114;2022-08-21T05:25:18;97782.50;;;17.35;100.00
18795;BME280;29610;49.022;12.114;2022-08-21T05:27:50;97784.88;;;17.36;100.00
18795;BME280;29610;49.022;12.114;2022-08-21T05:30:19;97788.72;;;17.32;100.00
18795;BME280;29610;49.022;12.114;2022-08-21T05:32:48;97786.44;;;17.53;100.00
18795;BME280;29610;49.022;12.114;2022-08-21T05:35:16;97788.06;;;17.58;100.00
18795;BME280;29610;49.022;12.114;2022-08-21T05:37:45;97788.91;;;17.42;100.00
18795;BME280;29610;49.022;12.114;2022-08-21T05:40:13;97785.91;;;17.47;100.00
18795;BME280;29610;49.022;12.114;2022-08-21T05:42:51;97793.56;;;17.58;100.00
18795;BME280;29610;49.022;12.114;2022-08-21T05:45:25;97800.50;;;17.71;100.00
18795;BME280;29610;49.022;12.114;2022-08-21T05:48:13;97794.34;;;17.77;100.00
18795;BME280;29610;49.022;12.114;2022-08-21T05:50:44;97799.78;;;17.96;100.00
18795;BME280;29610;49.022;12.114;2022-08-21T05:53:14;97799.94;;;17.84;100.00
18795;BME280;29610;49.022;12.114;2022-08-21T05:55:44;97801.59;;;18.11;100.00
18795;BME280;29610;49.022;12.114;2022-08-21T05:58:19;97786.81;;;18.19;100.00
18795;BME280;29610;49.022;12.114;2022-08-21T06:00:50;97797.06;;;18.22;100.00
18795;BME280;29610;49.022;12.114;2022-08-21T06:03:23;97788.50;;;18.27;100.00
18795;BME280;29610;49.022;12.114;2022-08-21T06:05:52;97787.72;;;18.27;100.00
18795;BME280;29610;49.022;12.114;2022-08-21T06:08:23;97783.88;;;18.09;100.00
18795;BME280;29610;49.022;12.114;2022-08-21T06:10:54;97792.75;;;17.57;100.00
18795;BME280;29610;49.022;12.114;2022-08-21T06:13:25;97792.25;;;17.71;100.00
18795;BME280;29610;49.022;12.114;2022-08-21T06:16:06;97788.63;;;17.67;100.00
18795;BME280;29610;49.022;12.114;2022-08-21T06:18:37;97798.53;;;17.71;100.00
18795;BME280;29610;49.022;12.114;2022-08-21T06:21:06;97800.41;;;17.67;100.00
18795;BME280;29610;49.022;12.114;2022-08-21T06:23:35;97799.31;;;17.72;100.00
18795;BME280;29610;49.022;12.114;2022-08-21T06:26:06;97803.28;;;17.93;100.00
18795;BME280;29610;49.022;12.114;2022-08-21T06:28:37;97797.75;;;18.16;100.00
18795;BME280;29610;49.022;12.114;2022-08-21T06:31:13;97794.38;;;18.26;100.00
18795;BME280;29610;49.022;12.114;2022-08-21T06:33:42;97791.75;;;18.33;100.00
18795;BME280;29610;49.022;12.114;2022-08-21T06:36:11;97790.72;;;18.41;100.00
18795;BME280;29610;49.022;12.114;2022-08-21T06:38:39;97788.56;;;18.53;100.00
18795;BME280;29610;49.022;12.114;2022-08-21T06:41:18;97787.19;;;18.66;100.00
18795;BME280;29610;49.022;12.114;2022-08-21T06:43:56;97784.25;;;18.82;100.00
18795;BME280;29610;49.022;12.114;2022-08-21T06:46:29;97785.13;;;18.89;100.00
18795;BME280;29610;49.022;12.114;2022-08-21T06:48:57;97786.56;;;19.06;100.00
18795;BME280;29610;49.022;12.114;2022-08-21T06:51:26;97785.53;;;19.18;100.00
18795;BME280;29610;49.022;12.114;2022-08-21T06:53:55;97771.44;;;19.26;100.00
18795;BME280;29610;49.022;12.114;2022-08-21T06:56:25;97770.72;;;19.29;100.00
18795;BME280;29610;49.022;12.114;2022-08-21T06:58:55;97768.69;;;19.26;100.00
18795;BME280;29610;49.022;12.114;2022-08-21T07:01:26;97761.69;;;19.29;100.00
18795;BME280;29610;49.022;12.114;2022-08-21T07:03:55;97769.38;;;19.20;100.00
18795;BME280;29610;49.022;12.114;2022-08-21T07:06:24;97774.47;;;19.47;100.00
18795;BME280;29610;49.022;12.114;2022-08-21T07:08:53;97772.28;;;19.63;100.00
18795;BME280;29610;49.022;12.114;2022-08-21T07:11:25;97776.72;;;19.71;100.00
18795;BME280;29610;49.022;12.114;2022-08-21T07:13:56;97778.72;;;19.74;100.00
18795;BME280;29610;49.022;12.114;2022-08-21T07:16:25;97779.19;;;19.83;100.00
18795;BME280;29610;49.022;12.114;2022-08-21T07:18:54;97773.03;;;19.97;100.00
18795;BME280;29610;49.022;12.114;2022-08-21T07:21:22;97772.69;;;20.02;100.00
18795;BME280;29610;49.022;12.114;2022-08-21T07:23:52;97785.69;;;20.05;100.00
18795;BME280;29610;49.022;12.114;2022-08-21T07:26:23;97781.75;;;20.06;100.00
18795;BME280;29610;49.022;12.114;2022-08-21T07:28:52;97775.16;;;20.14;100.00
18795;BME280;29610;49.022;12.114;2022-08-21T07:31:24;97774.28;;;19.66;100.00
18795;BME280;29610;49.022;12.114;2022-08-21T07:33:53;97767.25;;;19.72;100.00
18795;BME280;29610;49.022;12.114;2022-08-21T07:36:22;97768.09;;;20.16;100.00
18795;BME280;29610;49.022;12.114;2022-08-21T07:38:51;97768.97;;;20.27;100.00
18795;BME280;29610;49.022;12.114;2022-08-21T07:41:23;97770.91;;;20.23;100.00
18795;BME280;29610;49.022;12.114;2022-08-21T07:43:52;97769.75;;;19.84;100.00
18795;BME280;29610;49.022;12.114;2022-08-21T07:46:22;97778.53;;;19.97;100.00
18795;BME280;29610;49.022;12.114;2022-08-21T07:48:51;97776.31;;;20.13;100.00
18795;BME280;29610;49.022;12.114;2022-08-21T07:51:25;97774.88;;;20.26;100.00
18795;BME280;29610;49.022;12.114;2022-08-21T07:53:57;97779.84;;;20.10;100.00
18795;BME280;29610;49.022;12.114;2022-08-21T07:56:26;97780.25;;;20.12;100.00
18795;BME280;29610;49.022;12.114;2022-08-21T07:58:55;97774.16;;;19.92;100.00
18795;BME280;29610;49.022;12.114;2022-08-21T08:01:26;97775.22;;;19.81;100.00
18795;BME280;29610;49.022;12.114;2022-08-21T08:03:55;97771.09;;;20.04;100.00
18795;BME280;29610;49.022;12.114;2022-08-21T08:06:23;97773.63;;;20.16;100.00
18795;BME280;29610;49.022;12.114;2022-08-21T08:08:53;97776.03;;;19.81;100.00
18795;BME280;29610;49.022;12.114;2022-08-21T08:11:21;97775.69;;;19.90;100.00
18795;BME280;29610;49.022;12.114;2022-08-21T08:13:51;97783.97;;;19.90;100.00
18795;BME280;29610;49.022;12.114;2022-08-21T08:16:20;97780.44;;;19.89;100.00
18795;BME280;29610;49.022;12.114;2022-08-21T08:18:50;97785.28;;;19.63;100.00
18795;BME280;29610;49.022;12.114;2022-08-21T08:21:19;97793.25;;;19.71;100.00
18795;BME280;29610;49.022;12.114;2022-08-21T08:23:48;97789.88;;;19.88;100.00
18795;BME280;29610;49.022;12.114;2022-08-21T08:26:16;97789.59;;;20.00;100.00
18795;BME280;29610;49.022;12.114;2022-08-21T08:28:45;97786.84;;;20.00;100.00
18795;BME280;29610;49.022;12.114;2022-08-21T08:31:15;97792.59;;;20.21;100.00
18795;BME280;29610;49.022;12.114;2022-08-21T08:33:43;97785.97;;;20.29;100.00
18795;BME280;29610;49.022;12.114;2022-08-21T08:36:16;97785.06;;;20.18;100.00
18795;BME280;29610;49.022;12.114;2022-08-21T08:38:47;97787.84;;;20.22;100.00
18795;BME280;29610;49.022;12.114;2022-08-21T08:41:19;97781.78;;;20.09;100.00
18795;BME280;29610;49.022;12.114;2022-08-21T08:44:03;97791.56;;;20.00;100.00
18795;BME280;29610;49.022;12.114;2022-08-21T08:46:38;97784.88;;;20.01;100.00
18795;BME280;29610;49.022;12.114;2022-08-21T08:49:19;97792.81;;;19.33;100.00
18795;BME280;29610;49.022;12.114;2022-08-21T08:51:57;97793.09;;;19.57;100.00
18795;BME280;29610;49.022;12.114;2022-08-21T08:54:31;97799.03;;;19.96;100.00
18795;BME280;29610;49.022;12.114;2022-08-21T08:57:03;97792.03;;;20.05;100.00
18795;BME280;29610;49.022;12.114;2022-08-21T08:59:40;97789.03;;;19.81;100.00
18795;BME280;29610;49.022;12.114;2022-08-21T09:02:12;97797.69;;;20.19;100.00
18795;BME280;29610;49.022;12.114;2022-08-21T09:04:42;97797.34;;;20.24;100.00
18795;BME280;29610;49.022;12.114;2022-08-21T09:07:28;97807.13;;;19.82;100.00
18795;BME280;29610;49.022;12.114;2022-08-21T09:10:13;97793.56;;;20.03;100.00
18795;BME280;29610;49.022;12.114;2022-08-21T09:12:54;97799.06;;;19.63;100.00
18795;BME280;29610;49.022;12.114;2022-08-21T09:15:33;97799.28;;;19.84;100.00
18795;BME280;29610;49.022;12.114;2022-08-21T09:18:29;97799.59;;;19.75;100.00
18795;BME280;29610;49.022;12.114;2022-08-21T09:21:16;97800.00;;;20.14;100.00
18795;BME280;29610;49.022;12.114;2022-08-21T09:23:59;97794.63;;;20.31;100.00
18795;BME280;29610;49.022;12.114;2022-08-21T09:26:43;97795.53;;;20.46;100.00
18795;BME280;29610;49.022;12.114;2022-08-21T09:29:19;97788.22;;;20.68;100.00
18795;BME280;29610;49.022;12.114;2022-08-21T09:31:50;97789.94;;;20.93;100.00
18795;BME280;29610;49.022;12.114;2022-08-21T09:34:26;97791.28;;;20.59;100.00
18795;BME280;29610;49.022;12.114;2022-08-21T09:36:57;97793.69;;;20.64;100.00
18795;BME280;29610;49.022;12.114;2022-08-21T09:39:40;97798.25;;;20.39;100.00
18795;BME280;29610;49.022;12.114;2022-08-21T09:42:24;97788.66;;;20.22;100.00
18795;BME280;29610;49.022;12.114;2022-08-21T09:45:11;97796.81;;;20.12;100.00
18795;BME280;29610;49.022;12.114;2022-08-21T09:47:41;97791.09;;;20.34;100.00
18795;BME280;29610;49.022;12.114;2022-08-21T09:50:15;97800.44;;;20.19;100.00
18795;BME280;29610;49.022;12.114;2022-08-21T09:52:48;97793.63;;;21.15;100.00
18795;BME280;29610;49.022;12.114;2022-08-21T09:55:32;97783.81;;;21.28;100.00
18795;BME280;29610;49.022;12.114;2022-08-21T09:58:20;97782.72;;;21.50;100.00
18795;BME280;29610;49.022;12.114;2022-08-21T10:01:00;97781.28;;;22.16;100.00
18795;BME280;29610;49.022;12.114;2022-08-21T10:03:33;97785.31;;;21.11;100.00
18795;BME280;29610;49.022;12.114;2022-08-21T10:06:08;97789.59;;;21.02;100.00
18795;BME280;29610;49.022;12.114;2022-08-21T10:08:40;97789.41;;;20.70;100.00
18795;BME280;29610;49.022;12.114;2022-08-21T10:11:15;97783.44;;;21.33;100.00
18795;BME280;29610;49.022;12.114;2022-08-21T10:13:56;97779.66;;;21.80;100.00
18795;BME280;29610;49.022;12.114;2022-08-21T10:16:39;97786.03;;;22.50;100.00
18795;BME280;29610;49.022;12.114;2022-08-21T10:19:22;97768.97;;;22.87;100.00
18795;BME280;29610;49.022;12.114;2022-08-21T10:22:06;97763.06;;;22.74;100.00
18795;BME280;29610;49.022;12.114;2022-08-21T10:24:54;97759.91;;;22.76;100.00
18795;BME280;29610;49.022;12.114;2022-08-21T10:27:39;97765.56;;;23.59;100.00
18795;BME280;29610;49.022;12.114;2022-08-21T10:30:17;97750.88;;;24.23;100.00
18795;BME280;29610;49.022;12.114;2022-08-21T10:33:03;97752.59;;;24.07;100.00
18795;BME280;29610;49.022;12.114;2022-08-21T10:35:41;97748.66;;;24.04;100.00
18795;BME280;29610;49.022;12.114;2022-08-21T10:38:55;97750.06;;;24.26;100.00
18795;BME280;29610;49.022;12.114;2022-08-21T10:42:09;97735.91;;;24.95;100.00
18795;BME280;29610;49.022;12.114;2022-08-21T10:45:06;97741.16;;;25.20;100.00
18795;BME280;29610;49.022;12.114;2022-08-21T10:47:48;97738.81;;;25.18;100.00
18795;BME280;29610;49.022;12.114;2022-08-21T10:50:30;97738.84;;;25.48;100.00
18795;BME280;29610;49.022;12.114;2022-08-21T10:53:28;97741.53;;;24.00;100.00
18795;BME280;29610;49.022;12.114;2022-08-21T10:56:12;97739.41;;;24.18;100.00
18795;BME280;29610;49.022;12.114;2022-08-21T10:58:53;97740.81;;;24.40;100.00
18795;BME280;29610;49.022;12.114;2022-08-21T11:01:37;97737.09;;;25.28;100.00
18795;BME280;29610;49.022;12.114;2022-08-21T11:04:13;97739.97;;;25.81;100.00
18795;BME280;29610;49.022;12.114;2022-08-21T11:06:50;97737.47;;;26.63;100.00
18795;BME280;29610;49.022;12.114;2022-08-21T11:09:26;97730.78;;;27.42;100.00
18795;BME280;29610;49.022;12.114;2022-08-21T11:12:03;97729.69;;;27.56;100.00
18795;BME280;29610;49.022;12.114;2022-08-21T11:14:51;97741.97;;;26.34;100.00
18795;BME280;29610;49.022;12.114;2022-08-21T11:17:37;97727.53;;;26.62;100.00
18795;BME280;29610;49.022;12.114;2022-08-21T11:20:12;97728.88;;;26.31;100.00
18795;BME280;29610;49.022;12.114;2022-08-21T11:22:49;97721.78;;;27.35;100.00
18795;BME280;29610;49.022;12.114;2022-08-21T11:25:34;97718.97;;;28.38;100.00
18795;BME280;29610;49.022;12.114;2022-08-21T11:28:11;97717.44;;;27.85;100.00
18795;BME280;29610;49.022;12.114;2022-08-21T11:30:56;97714.00;;;25.91;100.00
18795;BME280;29610;49.022;12.114;2022-08-21T11:33:49;97708.22;;;25.78;100.00
18795;BME280;29610;49.022;12.114;2022-08-21T11:36:34;97705.56;;;25.68;100.00
18795;BME280;29610;49.022;12.114;2022-08-21T11:39:18;97709.09;;;25.12;100.00
18795;BME280;29610;49.022;12.114;2022-08-21T11:42:00;97702.38;;;25.69;100.00
18795;BME280;29610;49.022;12.114;2022-08-21T11:44:46;97701.09;;;26.27;100.00
18795;BME280;29610;49.022;12.114;2022-08-21T11:47:31;97697.72;;;26.59;100.00
18795;BME280;29610;49.022;12.114;2022-08-21T11:50:14;97704.66;;;26.28;100.00
18795;BME280;29610;49.022;12.114;2022-08-21T11:53:09;97695.13;;;26.71;100.00
18795;BME280;29610;49.022;12.114;2022-08-21T11:55:46;97681.06;;;26.55;100.00
18795;BME280;29610;49.022;12.114;2022-08-21T11:58:23;97693.94;;;25.76;100.00
18795;BME280;29610;49.022;12.114;2022-08-21T12:00:59;97686.38;;;26.04;100.00
18795;BME280;29610;49.022;12.114;2022-08-21T12:03:36;97675.19;;;26.50;100.00
18795;BME280;29610;49.022;12.114;2022-08-21T12:06:13;97676.91;;;27.61;100.00
18795;BME280;29610;49.022;12.114;2022-08-21T12:08:59;97675.50;;;28.53;100.00
18795;BME280;29610;49.022;12.114;2022-08-21T12:11:30;97669.25;;;28.61;100.00
18795;BME280;29610;49.022;12.114;2022-08-21T12:14:11;97671.22;;;28.77;100.00
18795;BME280;29610;49.022;12.114;2022-08-21T12:16:43;97666.66;;;29.12;100.00
18795;BME280;29610;49.022;12.114;2022-08-21T12:19:30;97668.69;;;28.06;100.00
18795;BME280;29610;49.022;12.114;2022-08-21T12:22:11;97668.94;;;29.17;100.00
18795;BME280;29610;49.022;12.114;2022-08-21T12:24:44;97663.19;;;29.08;100.00
18795;BME280;29610;49.022;12.114;2022-08-21T12:27:22;97659.38;;;29.80;100.00
18795;BME280;29610;49.022;12.114;2022-08-21T12:29:59;97658.94;;;29.16;100.00
18795;BME280;29610;49.022;12.114;2022-08-21T12:32:42;97658.66;;;29.39;100.00
18795;BME280;29610;49.022;12.114;2022-08-21T12:35:16;97659.06;;;28.23;100.00
18795;BME280;29610;49.022;12.114;2022-08-21T12:38:01;97650.84;;;29.05;100.00
18795;BME280;29610;49.022;12.114;2022-08-21T12:40:45;97659.03;;;28.39;100.00
18795;BME280;29610;49.022;12.114;2022-08-21T12:43:20;97648.34;;;27.38;100.00
18795;BME280;29610;49.022;12.114;2022-08-21T12:45:51;97648.75;;;26.38;100.00
18795;BME280;29610;49.022;12.114;2022-08-21T12:48:26;97648.66;;;26.84;100.00
18795;BME280;29610;49.022;12.114;2022-08-21T12:51:06;97640.69;;;27.58;100.00
18795;BME280;29610;49.022;12.114;2022-08-21T12:53:45;97640.44;;;28.48;100.00
18795;BME280;29610;49.022;12.114;2022-08-21T12:56:18;97628.91;;;28.63;100.00
18795;BME280;29610;49.022;12.114;2022-08-21T12:58:53;97631.22;;;28.93;100.00
18795;BME280;29610;49.022;12.114;2022-08-21T13:01:27;97628.19;;;29.41;100.00
18795;BME280;29610;49.022;12.114;2022-08-21T13:04:02;97621.69;;;29.94;92.26
18795;BME280;29610;49.022;12.114;2022-08-21T13:06:39;97611.19;;;30.32;90.58
18795;BME280;29610;49.022;12.114;2022-08-21T13:09:14;97611.94;;;30.24;85.59
18795;BME280;29610;49.022;12.114;2022-08-21T13:11:47;97605.41;;;30.82;92.20
18795;BME280;29610;49.022;12.114;2022-08-21T13:14:31;97606.69;;;30.47;84.31